createdAt,value
2023-03-15T00:03:30.761Z,4.43
2023-03-15T00:05:57.408Z,4.55
2023-03-15T00:08:23.988Z,4.30
2023-03-15T00:10:50.462Z,4.53
2023-03-15T00:13:18.114Z,4.28
2023-03-15T00:15:49.696Z,3.80
2023-03-15T00:18:18.052Z,3.88
2023-03-15T00:20:45.070Z,3.30
2023-03-15T00:23:11.629Z,2.60
2023-03-15T00:25:38.185Z,2.85
2023-03-15T00:28:05.263Z,3.10
2023-03-15T00:30:32.864Z,2.63
2023-03-15T00:32:59.517Z,2.97
2023-03-15T00:35:26.068Z,2.80
2023-03-15T00:37:56.918Z,2.40
2023-03-15T00:40:24.576Z,2.75
2023-03-15T00:42:52.373Z,2.85
2023-03-15T00:45:21.087Z,3.25
2023-03-15T00:47:52.434Z,3.00
2023-03-15T00:50:21.650Z,2.03
2023-03-15T00:52:48.330Z,3.00
2023-03-15T00:55:17.647Z,2.85
2023-03-15T00:57:46.042Z,2.50
2023-03-15T01:00:17.614Z,2.30
2023-03-15T01:02:44.461Z,2.08
2023-03-15T01:05:12.360Z,1.90
2023-03-15T01:07:39.194Z,1.92
2023-03-15T01:10:07.130Z,2.42
2023-03-15T01:12:34.469Z,2.10
2023-03-15T01:15:03.439Z,2.10
2023-03-15T01:17:30.286Z,1.80
2023-03-15T01:19:58.476Z,2.10
2023-03-15T01:22:26.290Z,2.40
2023-03-15T01:24:52.817Z,1.83
2023-03-15T01:27:19.432Z,1.90
2023-03-15T01:29:45.953Z,1.80
2023-03-15T01:32:13.951Z,3.08
2023-03-15T01:34:43.225Z,1.85
2023-03-15T01:37:14.432Z,2.03
2023-03-15T01:39:43.646Z,1.23
2023-03-15T01:42:10.563Z,2.20
2023-03-15T01:45:01.508Z,1.33
2023-03-15T01:47:28.375Z,1.52
2023-03-15T01:50:09.581Z,1.45
2023-03-15T01:52:39.169Z,1.20
2023-03-15T01:55:16.583Z,1.40
2023-03-15T01:57:58.580Z,1.45
2023-03-15T02:00:27.671Z,1.23
2023-03-15T02:03:17.650Z,1.10
2023-03-15T02:05:54.601Z,1.00
2023-03-15T02:08:36.474Z,1.02
2023-03-15T02:11:05.239Z,1.30
2023-03-15T02:13:34.904Z,1.33
2023-03-15T02:16:06.882Z,1.00
2023-03-15T02:18:40.960Z,1.10
2023-03-15T02:21:38.628Z,0.90
2023-03-15T02:24:35.594Z,1.00
2023-03-15T02:27:02.401Z,1.17
2023-03-15T02:29:30.031Z,1.27
2023-03-15T02:31:57.957Z,1.20
2023-03-15T02:34:25.950Z,1.30
2023-03-15T02:36:52.706Z,1.10
2023-03-15T02:39:21.225Z,1.10
2023-03-15T02:41:55.443Z,1.13
2023-03-15T02:44:43.932Z,1.40
2023-03-15T02:47:33.383Z,1.10
2023-03-15T02:49:59.966Z,1.33
2023-03-15T02:52:27.128Z,1.45
2023-03-15T02:54:54.262Z,1.38
2023-03-15T02:57:21.156Z,1.40
2023-03-15T02:59:50.850Z,1.20
2023-03-15T03:02:18.178Z,1.20
2023-03-15T03:04:45.575Z,1.80
2023-03-15T03:07:12.338Z,1.55
2023-03-15T03:09:57.114Z,1.73
2023-03-15T03:12:25.016Z,1.38
2023-03-15T03:14:56.687Z,1.73
2023-03-15T03:17:24.622Z,1.52
2023-03-15T03:19:51.889Z,1.45
2023-03-15T03:22:27.113Z,1.90
2023-03-15T03:24:54.622Z,1.48
2023-03-15T03:27:21.454Z,2.45
2023-03-15T03:29:50.186Z,1.50
2023-03-15T03:32:16.910Z,1.80
2023-03-15T03:34:48.565Z,1.95
2023-03-15T03:37:19.756Z,2.03
2023-03-15T03:39:59.647Z,1.42
2023-03-15T03:42:26.281Z,2.03
2023-03-15T03:44:54.501Z,1.80
2023-03-15T03:47:21.837Z,2.00
2023-03-15T03:49:48.456Z,2.30
2023-03-15T03:52:15.135Z,1.88
2023-03-15T03:54:42.798Z,2.55
2023-03-15T03:57:10.932Z,1.98
2023-03-15T03:59:38.336Z,2.10
2023-03-15T04:02:05.503Z,2.38
2023-03-15T04:04:32.084Z,1.45
2023-03-15T04:06:59.233Z,2.15
2023-03-15T04:09:31.257Z,2.13
2023-03-15T04:11:57.855Z,2.15
2023-03-15T04:14:25.392Z,2.10
2023-03-15T04:16:54.496Z,1.92
2023-03-15T04:19:21.995Z,2.15
2023-03-15T04:21:49.174Z,2.75
2023-03-15T04:24:25.462Z,3.40
2023-03-15T04:27:18.287Z,2.58
2023-03-15T04:30:05.771Z,2.92
2023-03-15T04:32:58.786Z,2.92
2023-03-15T04:35:42.585Z,2.75
2023-03-15T04:38:32.677Z,3.05
2023-03-15T04:41:11.012Z,2.85
2023-03-15T04:44:04.116Z,3.40
2023-03-15T04:46:53.732Z,4.05
2023-03-15T04:49:33.649Z,3.95
2023-03-15T04:52:09.936Z,4.32
2023-03-15T04:54:56.699Z,3.95
2023-03-15T04:57:43.295Z,3.90
2023-03-15T05:00:18.316Z,3.08
2023-03-15T05:03:07.774Z,2.97
2023-03-15T05:06:08.046Z,2.50
2023-03-15T05:09:17.990Z,2.47
2023-03-15T05:12:05.806Z,2.60
2023-03-15T05:14:41.820Z,2.53
2023-03-15T05:17:27.149Z,2.75
2023-03-15T05:20:16.492Z,2.58
2023-03-15T05:22:53.454Z,2.33
2023-03-15T05:25:54.053Z,2.55
2023-03-15T05:28:45.164Z,3.07
2023-03-15T05:31:30.167Z,3.03
2023-03-15T05:34:15.507Z,2.72
2023-03-15T05:37:12.348Z,2.70
2023-03-15T05:40:09.817Z,2.83
2023-03-15T05:42:52.960Z,3.00
2023-03-15T05:45:48.952Z,3.20
2023-03-15T05:48:33.724Z,3.83
2023-03-15T05:51:13.235Z,3.60
2023-03-15T05:54:09.257Z,3.10
2023-03-15T05:56:58.664Z,3.88
2023-03-15T05:59:40.669Z,2.75
2023-03-15T06:02:33.284Z,2.63
2023-03-15T06:05:17.570Z,2.80
2023-03-15T06:07:46.289Z,3.00
2023-03-15T06:10:14.229Z,2.95
2023-03-15T06:12:40.881Z,3.58
2023-03-15T06:15:08.373Z,3.83
2023-03-15T06:17:34.876Z,3.45
2023-03-15T06:20:01.365Z,3.78
2023-03-15T06:22:28.175Z,2.92
2023-03-15T06:24:59.054Z,2.85
2023-03-15T06:27:25.671Z,2.80
2023-03-15T06:29:54.936Z,3.15
2023-03-15T06:32:22.823Z,2.67
2023-03-15T06:34:49.479Z,3.10
2023-03-15T06:37:22.823Z,3.03
2023-03-15T06:39:56.030Z,3.03
2023-03-15T06:42:23.070Z,2.50
2023-03-15T06:44:51.171Z,2.47
2023-03-15T06:47:18.215Z,3.30
2023-03-15T06:49:44.844Z,3.03
2023-03-15T06:52:12.342Z,2.70
2023-03-15T06:54:38.812Z,2.83
2023-03-15T06:57:05.361Z,2.60
2023-03-15T06:59:31.803Z,2.50
2023-03-15T07:01:58.293Z,3.13
2023-03-15T07:04:24.836Z,2.90
2023-03-15T07:06:51.615Z,2.80
2023-03-15T07:09:18.197Z,2.78
2023-03-15T07:11:44.752Z,2.55
2023-03-15T07:14:11.444Z,2.88
2023-03-15T07:16:37.931Z,1.90
2023-03-15T07:19:04.678Z,2.70
2023-03-15T07:21:31.330Z,2.30
2023-03-15T07:23:57.895Z,2.20
2023-03-15T07:26:24.356Z,1.50
2023-03-15T07:28:51.081Z,2.47
2023-03-15T07:31:17.779Z,2.17
2023-03-15T07:33:44.533Z,2.45
2023-03-15T07:36:11.108Z,1.70
2023-03-15T07:38:37.717Z,1.55
2023-03-15T07:41:05.997Z,1.70
2023-03-15T07:43:32.601Z,1.52
2023-03-15T07:46:10.565Z,1.55
2023-03-15T07:48:37.156Z,1.58
2023-03-15T07:51:04.600Z,1.67
2023-03-15T07:53:31.202Z,3.08
2023-03-15T07:55:57.723Z,2.17
2023-03-15T07:58:24.162Z,2.08
2023-03-15T08:00:50.627Z,2.00
2023-03-15T08:03:17.301Z,1.50
2023-03-15T08:05:43.801Z,1.50
2023-03-15T08:08:10.347Z,2.38
2023-03-15T08:10:36.998Z,2.13
2023-03-15T08:13:03.683Z,1.55
2023-03-15T08:15:30.199Z,2.00
2023-03-15T08:17:56.789Z,2.40
2023-03-15T08:20:23.354Z,1.67
2023-03-15T08:22:51.367Z,1.75
2023-03-15T08:25:21.485Z,1.50
2023-03-15T08:27:49.808Z,1.85
2023-03-15T08:30:17.794Z,1.73
2023-03-15T08:32:46.239Z,1.50
2023-03-15T08:35:15.761Z,1.77
2023-03-15T08:37:46.926Z,1.80
2023-03-15T08:40:15.563Z,1.50
2023-03-15T08:42:42.107Z,1.40
2023-03-15T08:45:09.379Z,1.50
2023-03-15T08:47:36.193Z,1.52
2023-03-15T08:50:05.501Z,1.70
2023-03-15T08:52:32.525Z,1.20
2023-03-15T08:54:59.278Z,1.60
2023-03-15T08:57:26.546Z,2.38
2023-03-15T08:59:53.842Z,2.53
2023-03-15T09:02:20.459Z,3.42
2023-03-15T09:04:47.270Z,1.33
2023-03-15T09:07:14.075Z,3.03
2023-03-15T09:09:40.767Z,1.58
2023-03-15T09:12:08.008Z,2.50
2023-03-15T09:14:34.463Z,3.55
2023-03-15T09:17:00.985Z,1.67
2023-03-15T09:19:27.505Z,5.53
2023-03-15T09:21:53.980Z,1.10
2023-03-15T09:24:20.672Z,1.90
2023-03-15T09:26:47.174Z,1.50
2023-03-15T09:29:14.158Z,0.65
2023-03-15T09:31:40.661Z,2.00
2023-03-15T09:34:07.247Z,1.38
2023-03-15T09:36:34.120Z,1.52
2023-03-15T09:39:01.593Z,2.47
2023-03-15T09:41:42.327Z,2.35
2023-03-15T09:44:21.212Z,1.95
2023-03-15T09:47:05.152Z,4.55
2023-03-15T09:49:39.480Z,5.15
2023-03-15T09:52:24.178Z,0.90
2023-03-15T09:54:57.739Z,1.23
2023-03-15T10:12:23.483Z,0.63
2023-03-15T11:33:07.964Z,1.10
2023-03-15T11:35:49.590Z,1.95
2023-03-15T11:38:45.926Z,0.98
2023-03-15T11:41:48.014Z,1.63
2023-03-15T11:47:01.367Z,1.23
2023-03-15T11:49:43.115Z,1.33
2023-03-15T11:52:10.762Z,1.00
2023-03-15T11:54:37.391Z,1.00
2023-03-15T11:57:07.078Z,0.65
2023-03-15T11:59:38.101Z,0.98
2023-03-15T12:02:10.690Z,0.90
2023-03-15T12:04:42.374Z,0.98
2023-03-15T12:07:18.638Z,1.20
2023-03-15T12:10:18.886Z,0.65
2023-03-15T12:12:48.019Z,0.65
2023-03-15T12:15:14.551Z,1.08
2023-03-15T12:17:59.765Z,0.80
2023-03-15T12:20:37.290Z,1.10
2023-03-15T12:23:09.796Z,0.88
2023-03-15T12:25:54.952Z,0.70
2023-03-15T12:28:35.816Z,0.90
2023-03-15T12:31:06.699Z,0.68
2023-03-15T12:33:44.017Z,0.87
2023-03-15T12:36:20.693Z,1.05
2023-03-15T12:39:00.652Z,0.93
2023-03-15T12:41:46.607Z,1.15
2023-03-15T12:44:20.355Z,1.02
2023-03-15T12:46:46.885Z,1.00
2023-03-15T12:49:29.416Z,0.82
2023-03-15T12:52:05.180Z,0.95
2023-03-15T12:54:53.909Z,1.00
2023-03-15T12:57:30.703Z,0.93
2023-03-15T13:00:06.616Z,1.10
2023-03-15T13:02:43.201Z,1.02
2023-03-15T13:05:10.568Z,1.20
2023-03-15T13:08:03.851Z,1.10
2023-03-15T13:11:03.167Z,1.27
2023-03-15T13:13:47.764Z,1.25
2023-03-15T13:16:27.928Z,1.52
2023-03-15T13:18:59.286Z,1.15
2023-03-15T13:21:35.547Z,1.48
2023-03-15T13:24:05.999Z,1.15
2023-03-15T13:27:02.214Z,1.20
2023-03-15T13:29:33.449Z,1.17
2023-03-15T13:32:03.013Z,1.48
2023-03-15T13:34:32.117Z,1.13
2023-03-15T13:37:00.139Z,1.33
2023-03-15T13:39:29.801Z,1.80
2023-03-15T13:42:16.913Z,1.50
2023-03-15T13:44:43.710Z,1.58
2023-03-15T13:47:21.903Z,1.30
2023-03-15T13:49:52.792Z,1.65
2023-03-15T13:52:19.772Z,2.20
2023-03-15T13:54:46.654Z,2.10
2023-03-15T13:57:16.700Z,2.58
2023-03-15T13:59:46.361Z,2.20
2023-03-15T14:02:26.541Z,2.05
2023-03-15T14:05:00.618Z,2.00
2023-03-15T14:07:36.887Z,1.88
2023-03-15T14:10:16.254Z,1.80
2023-03-15T14:12:44.009Z,2.58
2023-03-15T14:15:17.378Z,1.70
2023-03-15T14:18:13.945Z,1.40
2023-03-15T14:20:43.908Z,1.23
2023-03-15T14:23:14.395Z,1.80
2023-03-15T14:25:41.924Z,1.42
2023-03-15T14:28:15.672Z,1.02
2023-03-15T14:30:50.588Z,1.10
2023-03-15T14:33:51.140Z,1.23
2023-03-15T14:36:29.942Z,1.20
2023-03-15T14:38:59.038Z,1.30
2023-03-15T14:41:31.273Z,1.45
2023-03-15T14:43:58.028Z,1.27
2023-03-15T14:46:24.562Z,1.48
2023-03-15T14:48:51.685Z,1.70
2023-03-15T14:51:21.013Z,1.70
2023-03-15T14:53:51.561Z,1.70
2023-03-15T14:56:19.854Z,1.63
2023-03-15T14:58:46.672Z,1.75
2023-03-15T15:01:17.740Z,1.95
2023-03-15T15:03:51.326Z,1.80
2023-03-15T15:06:17.897Z,1.83
2023-03-15T15:08:47.517Z,1.75
2023-03-15T15:11:15.283Z,1.80
2023-03-15T15:13:42.744Z,2.22
2023-03-15T15:16:09.525Z,2.60
2023-03-15T15:18:37.123Z,2.00
2023-03-15T15:21:12.708Z,1.95
2023-03-15T15:23:57.013Z,2.55
2023-03-15T15:26:27.067Z,2.70
2023-03-15T15:28:54.137Z,2.50
2023-03-15T15:31:24.884Z,2.40
2023-03-15T15:33:53.231Z,1.97
2023-03-15T15:36:32.830Z,2.33
2023-03-15T15:39:06.426Z,3.10
2023-03-15T15:41:33.511Z,2.33
2023-03-15T15:44:00.991Z,3.33
2023-03-15T15:46:27.608Z,2.85
2023-03-15T15:48:54.488Z,3.10
2023-03-15T15:51:28.708Z,3.08
2023-03-15T15:54:00.629Z,2.55
2023-03-15T15:56:34.390Z,3.50
2023-03-15T15:59:04.374Z,3.30
2023-03-15T16:01:31.472Z,3.83
2023-03-15T16:03:58.154Z,3.60
2023-03-15T16:06:24.690Z,3.28
2023-03-15T16:08:53.028Z,4.30
2023-03-15T16:11:20.707Z,3.80
2023-03-15T16:13:51.705Z,3.00
2023-03-15T16:16:18.457Z,4.13
2023-03-15T16:18:45.632Z,2.92
2023-03-15T16:21:16.929Z,2.70
2023-03-15T16:23:45.356Z,2.80
2023-03-15T16:26:16.286Z,2.22
2023-03-15T16:28:43.819Z,3.10
2023-03-15T16:31:12.304Z,2.63
2023-03-15T16:33:38.858Z,2.63
2023-03-15T16:36:05.618Z,2.63
2023-03-15T16:38:32.372Z,2.88
2023-03-15T16:41:00.292Z,2.63
2023-03-15T16:43:27.217Z,3.22
2023-03-15T16:45:53.713Z,3.65
2023-03-15T16:48:20.793Z,3.15
2023-03-15T16:50:48.540Z,2.97
2023-03-15T16:53:15.520Z,2.85
2023-03-15T16:55:42.019Z,2.50
2023-03-15T16:58:16.974Z,2.15
2023-03-15T17:00:46.587Z,2.35
2023-03-15T17:03:13.228Z,2.00
2023-03-15T17:05:41.282Z,2.35
2023-03-15T17:08:11.905Z,2.42
2023-03-15T17:10:40.558Z,2.33
2023-03-15T17:13:07.243Z,2.97
2023-03-15T17:15:33.831Z,2.90
2023-03-15T17:18:00.607Z,3.65
2023-03-15T17:20:28.668Z,4.78
2023-03-15T17:23:04.726Z,4.20
2023-03-15T17:25:33.079Z,3.60
2023-03-15T17:28:00.423Z,3.40
2023-03-15T17:30:31.807Z,2.38
2023-03-15T17:32:58.545Z,2.67
2023-03-15T17:35:30.667Z,2.53
2023-03-15T17:37:57.373Z,3.20
2023-03-15T17:40:25.768Z,5.40
2023-03-15T17:42:53.891Z,4.47
2023-03-15T17:45:23.125Z,4.45
2023-03-15T17:47:51.753Z,4.85
2023-03-15T17:50:19.025Z,6.45
2023-03-15T17:52:48.373Z,7.00
2023-03-15T17:55:21.360Z,7.80
2023-03-15T17:57:54.791Z,6.97
2023-03-15T18:00:22.518Z,6.45
2023-03-15T18:02:55.686Z,6.18
2023-03-15T18:05:25.172Z,8.63
2023-03-15T18:08:00.095Z,7.25
2023-03-15T18:10:34.064Z,7.00
2023-03-15T18:13:01.090Z,9.50
2023-03-15T18:15:28.335Z,9.38
2023-03-15T18:17:54.812Z,6.97
2023-03-15T18:20:23.679Z,6.47
2023-03-15T18:22:50.672Z,7.85
2023-03-15T18:25:19.272Z,7.28
2023-03-15T18:27:46.765Z,7.88
2023-03-15T18:30:16.372Z,7.60
2023-03-15T18:32:43.037Z,8.18
2023-03-15T18:35:15.805Z,7.75
2023-03-15T18:37:42.517Z,8.75
2023-03-15T18:40:10.882Z,10.38
2023-03-15T18:42:37.376Z,9.35
2023-03-15T18:45:04.486Z,8.90
2023-03-15T18:47:32.557Z,9.23
2023-03-15T18:50:09.609Z,8.35
2023-03-15T18:52:37.060Z,10.27
2023-03-15T18:55:04.552Z,9.10
2023-03-15T18:57:31.057Z,9.38
2023-03-15T18:59:58.174Z,8.30
2023-03-15T19:02:24.783Z,8.65
2023-03-15T19:04:51.351Z,8.05
2023-03-15T19:07:17.864Z,9.65
2023-03-15T19:09:44.636Z,8.52
2023-03-15T19:12:11.346Z,10.27
2023-03-15T19:14:37.894Z,14.23
2023-03-15T19:17:04.562Z,35.78
2023-03-15T19:19:31.360Z,17.20
2023-03-15T19:21:58.841Z,19.83
2023-03-15T19:24:25.352Z,15.15
2023-03-15T19:26:52.013Z,23.13
2023-03-15T19:29:18.505Z,11.43
2023-03-15T19:31:45.101Z,12.48
2023-03-15T19:34:11.586Z,13.80
2023-03-15T19:36:38.098Z,55.78
2023-03-15T19:39:07.038Z,22.27
2023-03-15T19:41:33.490Z,35.15
2023-03-15T19:44:00.042Z,15.20
2023-03-15T19:46:26.714Z,12.68
2023-03-15T19:48:53.235Z,12.32
2023-03-15T19:51:19.896Z,17.08
2023-03-15T19:53:46.660Z,26.05
2023-03-15T19:56:13.383Z,15.02
2023-03-15T19:58:39.932Z,15.48
2023-03-15T20:01:06.433Z,15.35
2023-03-15T20:03:35.817Z,16.15
2023-03-15T20:06:12.380Z,12.93
2023-03-15T20:08:39.371Z,19.27
2023-03-15T20:11:09.207Z,12.48
2023-03-15T20:13:36.952Z,10.57
2023-03-15T20:16:06.964Z,11.13
2023-03-15T20:18:33.519Z,14.68
2023-03-15T20:20:59.975Z,12.43
2023-03-15T20:23:26.510Z,12.40
2023-03-15T20:26:03.495Z,13.20
2023-03-15T20:28:30.026Z,16.13
2023-03-15T20:30:56.571Z,13.93
2023-03-15T20:33:23.162Z,12.82
2023-03-15T20:35:49.655Z,10.52
2023-03-15T20:38:16.195Z,11.40
2023-03-15T20:40:44.109Z,10.20
2023-03-15T20:43:11.421Z,10.25
2023-03-15T20:45:38.879Z,9.15
2023-03-15T20:48:06.073Z,10.10
2023-03-15T20:50:32.607Z,9.52
2023-03-15T20:52:59.066Z,10.93
2023-03-15T20:55:25.929Z,10.23
2023-03-15T20:57:53.454Z,11.40
2023-03-15T21:00:20.864Z,9.02
2023-03-15T21:02:48.074Z,10.10
2023-03-15T21:05:16.089Z,20.17
2023-03-15T21:07:44.007Z,9.93
2023-03-15T21:10:13.825Z,9.15
2023-03-15T21:12:40.641Z,21.95
2023-03-15T21:15:07.753Z,16.05
2023-03-15T21:17:34.622Z,11.20
2023-03-15T21:20:01.208Z,10.30
2023-03-15T21:22:27.864Z,12.27
2023-03-15T21:24:56.233Z,11.20
2023-03-15T21:27:26.119Z,9.10
2023-03-15T21:29:53.682Z,9.13
2023-03-15T21:32:20.383Z,8.57
2023-03-15T21:34:46.838Z,7.80
2023-03-15T21:37:13.285Z,8.40
2023-03-15T21:39:39.825Z,8.55
2023-03-15T21:42:06.484Z,8.38
2023-03-15T21:44:37.357Z,8.35
2023-03-15T21:47:07.132Z,8.73
2023-03-15T21:49:33.672Z,8.80
2023-03-15T21:52:00.522Z,8.07
2023-03-15T21:54:27.156Z,8.57
2023-03-15T21:56:53.746Z,9.15
2023-03-15T21:59:27.616Z,9.43
2023-03-15T22:01:55.507Z,8.15
2023-03-15T22:04:22.353Z,8.10
2023-03-15T22:06:48.865Z,9.90
2023-03-15T22:09:15.408Z,9.05
2023-03-15T22:11:41.891Z,8.90
2023-03-15T22:14:08.373Z,9.02
2023-03-15T22:16:35.260Z,8.10
2023-03-15T22:19:03.307Z,10.10
2023-03-15T22:21:30.919Z,9.88
2023-03-15T22:23:57.468Z,9.68
2023-03-15T22:26:24.344Z,11.45
2023-03-15T22:28:51.677Z,10.35
2023-03-15T22:31:18.693Z,11.32
2023-03-15T22:33:45.334Z,9.57
2023-03-15T22:36:11.800Z,10.30
2023-03-15T22:38:38.318Z,10.43
2023-03-15T22:41:07.939Z,9.80
2023-03-15T22:43:35.402Z,10.40
2023-03-15T22:46:01.960Z,10.95
2023-03-15T22:48:28.649Z,9.63
2023-03-15T22:51:09.655Z,10.05
2023-03-15T22:53:36.223Z,10.05
2023-03-15T22:56:03.982Z,9.57
2023-03-15T22:58:30.625Z,9.20
2023-03-15T23:00:57.180Z,8.45
2023-03-15T23:03:24.246Z,10.10
2023-03-15T23:05:50.766Z,9.38
2023-03-15T23:08:17.341Z,8.93
2023-03-15T23:10:43.912Z,9.30
2023-03-15T23:13:10.499Z,8.75
2023-03-15T23:15:38.098Z,9.32
2023-03-15T23:18:05.363Z,10.73
2023-03-15T23:20:32.554Z,11.35
2023-03-15T23:22:59.201Z,10.95
2023-03-15T23:25:28.846Z,11.73
2023-03-15T23:27:56.091Z,11.13
2023-03-15T23:30:22.671Z,11.65
2023-03-15T23:32:50.962Z,11.10
2023-03-15T23:35:17.553Z,10.50
2023-03-15T23:37:43.989Z,10.27
2023-03-15T23:40:11.546Z,9.50
2023-03-15T23:42:38.259Z,10.45
2023-03-15T23:45:08.371Z,10.00
2023-03-15T23:47:35.297Z,9.07
2023-03-15T23:50:04.746Z,8.50
2023-03-15T23:52:31.682Z,9.15
2023-03-15T23:54:58.140Z,9.25
2023-03-15T23:57:25.053Z,9.25
2023-03-15T23:59:51.640Z,10.65
